Time;durP1;ratioP1;P1;durP2;ratioP2;P2;SDS_P1;SDS_P2;PMS_P1;PMS_P2;Temp;Humidity;BMP_temperature;BMP_pressure;BME280_temperature;BME280_humidity;BME280_pressure;Samples;Min_cycle;Max_cycle;Signal;HPM_P1;HPM_P2
2021/05/25 00:00:21;;;;;;;2.57;1.77;;;;;;;13.79;62.39;99564.95;233264;1174;114787;-71
2021/05/25 00:05:45;;;;;;;3.60;2.70;;;;;;;13.82;62.89;99559.08;233359;1174;115510;-69
2021/05/25 00:10:48;;;;;;;3.48;2.65;;;;;;;13.76;63.44;99578.05;232843;1174;115912;-68
2021/05/25 00:15:53;;;;;;;5.73;2.28;;;;;;;13.67;64.10;99593.02;232395;1174;116098;-69
2021/05/25 00:20:57;;;;;;;2.53;2.30;;;;;;;13.65;64.53;99582.56;232717;1176;116884;-69
2021/05/25 00:26:02;;;;;;;2.53;1.60;;;;;;;13.70;64.82;99560.37;232534;1174;117311;-67
2021/05/25 00:31:08;;;;;;;1.98;1.78;;;;;;;13.71;65.15;99530.64;234167;1174;116102;-69
2021/05/25 00:36:11;;;;;;;3.05;2.75;;;;;;;13.78;65.52;99514.31;235189;1170;116540;-68
2021/05/25 00:41:14;;;;;;;5.23;2.83;;;;;;;13.76;65.17;99505.73;234316;1174;116858;-69
2021/05/25 00:46:17;;;;;;;3.13;2.13;;;;;;;13.72;65.66;99494.75;235008;1174;116328;-67
2021/05/25 00:51:19;;;;;;;3.93;2.80;;;;;;;13.71;65.91;99495.02;233679;1176;117675;-67
2021/05/25 00:56:22;;;;;;;4.80;3.33;;;;;;;13.71;65.58;99469.03;233810;1174;116451;-67
2021/05/25 01:01:24;;;;;;;3.23;2.93;;;;;;;13.71;66.17;99460.19;233013;1174;116761;-69
2021/05/25 01:06:28;;;;;;;3.27;2.97;;;;;;;13.66;66.33;99452.13;232524;1174;116920;-67
2021/05/25 01:11:38;;;;;;;5.20;2.97;;;;;;;13.62;66.25;99449.16;232489;1174;116553;-69
2021/05/25 01:16:40;;;;;;;3.45;3.15;;;;;;;13.55;66.26;99439.75;233115;1175;117737;-69
2021/05/25 01:21:47;;;;;;;15.10;3.30;;;;;;;13.49;66.97;99436.23;232553;1171;116932;-69
2021/05/25 01:26:51;;;;;;;3.60;3.27;;;;;;;13.46;67.32;99426.05;232417;1174;116381;-68
2021/05/25 01:31:54;;;;;;;3.17;2.87;;;;;;;13.39;66.93;99437.02;232756;1175;116557;-67
2021/05/25 01:36:57;;;;;;;3.97;3.17;;;;;;;13.21;67.36;99433.95;232382;1174;116055;-66
2021/05/25 01:41:59;;;;;;;6.58;3.53;;;;;;;13.10;67.96;99412.47;232644;1174;116525;-68
2021/05/25 01:47:03;;;;;;;4.03;3.60;;;;;;;13.13;67.96;99403.93;232538;1174;117145;-68
2021/05/25 01:52:06;;;;;;;4.48;4.15;;;;;;;13.11;68.05;99402.58;232488;1174;116592;-68
2021/05/25 01:57:09;;;;;;;4.90;4.50;;;;;;;13.03;68.99;99395.83;232503;1174;116930;-68
2021/05/25 02:02:12;;;;;;;4.63;4.23;;;;;;;13.06;68.66;99402.54;233107;1174;115974;-69
2021/05/25 02:07:19;;;;;;;4.87;4.30;;;;;;;13.09;69.14;99392.13;233474;1173;115662;-68
2021/05/25 02:12:22;;;;;;;6.93;4.93;;;;;;;13.09;69.27;99392.13;232489;1174;115653;-67
2021/05/25 02:17:27;;;;;;;4.68;4.15;;;;;;;13.09;69.36;99384.09;232457;1174;115930;-66
2021/05/25 02:22:30;;;;;;;5.87;4.50;;;;;;;13.08;69.43;99376.33;235223;1174;115716;-68
2021/05/25 02:27:35;;;;;;;9.00;4.68;;;;;;;13.07;69.31;99370.17;234153;1174;116122;-68
2021/05/25 02:32:38;;;;;;;3.63;3.33;;;;;;;13.11;69.82;99368.59;232573;1176;174790;-68
2021/05/25 02:37:42;;;;;;;3.60;3.20;;;;;;;13.03;69.83;99344.19;232763;1176;116215;-68
2021/05/25 02:42:45;;;;;;;5.38;3.60;;;;;;;12.98;69.62;99328.91;233741;1174;116362;-68
2021/05/25 02:47:50;;;;;;;3.20;3.00;;;;;;;13.00;69.62;99331.33;233980;1170;115628;-68
2021/05/25 02:52:54;;;;;;;4.60;4.00;;;;;;;13.02;69.83;99327.33;232881;1174;116076;-68
2021/05/25 02:58:00;;;;;;;7.13;3.93;;;;;;;13.05;70.26;99328.68;232582;1174;115430;-67
2021/05/25 03:03:03;;;;;;;4.70;3.58;;;;;;;13.05;70.06;99326.81;232405;1173;115766;-68
2021/05/25 03:08:09;;;;;;;5.03;4.40;;;;;;;13.08;70.32;99320.14;233296;1174;115327;-68
2021/05/25 03:13:14;;;;;;;5.87;4.40;;;;;;;13.18;70.59;99325.54;233344;1174;116228;-69
2021/05/25 03:18:18;;;;;;;4.08;3.50;;;;;;;13.17;70.36;99325.80;233441;1174;114708;-68
2021/05/25 03:23:21;;;;;;;7.10;5.27;;;;;;;13.18;70.56;99330.89;232707;1174;115422;-69
2021/05/25 03:28:28;;;;;;;8.35;4.23;;;;;;;13.30;70.82;99323.45;233118;1174;115530;-68
2021/05/25 03:33:32;;;;;;;3.70;3.40;;;;;;;13.36;70.56;99340.35;232623;1171;115292;-68
2021/05/25 03:38:36;;;;;;;4.53;3.93;;;;;;;13.37;70.72;99336.61;232620;1174;115824;-68
2021/05/25 03:43:40;;;;;;;5.30;3.80;;;;;;;13.47;70.53;99337.42;232892;1174;116213;-68
2021/05/25 03:48:43;;;;;;;3.97;3.67;;;;;;;13.53;70.38;99343.61;232609;1174;115380;-69
2021/05/25 03:53:48;;;;;;;3.88;3.48;;;;;;;13.50;70.17;99349.48;232474;1174;115951;-69
2021/05/25 03:58:53;;;;;;;7.57;3.90;;;;;;;13.43;70.40;99352.44;232573;1174;115299;-69
2021/05/25 04:03:57;;;;;;;4.87;3.30;;;;;;;13.43;70.37;99362.34;233062;1174;115473;-69
2021/05/25 04:09:01;;;;;;;4.90;3.18;;;;;;;13.37;70.31;99363.38;233532;1168;114637;-68
2021/05/25 04:14:05;;;;;;;4.35;2.75;;;;;;;13.38;70.12;99356.95;233287;1174;115275;-68
2021/05/25 04:19:09;;;;;;;2.70;2.50;;;;;;;13.32;70.45;99356.13;233728;1174;115527;-69
2021/05/25 04:24:12;;;;;;;3.10;2.87;;;;;;;13.31;70.30;99353.71;233078;1174;114698;-68
2021/05/25 04:29:16;;;;;;;3.08;2.65;;;;;;;13.30;70.62;99360.94;233407;1174;115649;-68
2021/05/25 04:34:20;;;;;;;3.43;3.13;;;;;;;13.30;70.77;99357.45;235106;1174;114585;-69
2021/05/25 04:39:24;;;;;;;4.63;3.63;;;;;;;13.27;70.81;99363.33;235245;1174;114947;-68
2021/05/25 04:44:27;;;;;;;3.90;3.43;;;;;;;13.20;70.98;99352.84;235188;1174;115344;-68
2021/05/25 04:49:32;;;;;;;3.83;3.35;;;;;;;13.22;70.97;99352.59;234700;1174;116141;-68
2021/05/25 04:54:37;;;;;;;2.88;2.68;;;;;;;13.23;71.30;99352.33;234978;1175;116165;-67
2021/05/25 04:59:40;;;;;;;4.67;2.87;;;;;;;13.23;71.43;99354.20;232687;1174;117574;-68
2021/05/25 05:04:44;;;;;;;4.00;2.90;;;;;;;13.24;71.46;99358.48;233308;1174;115618;-68
2021/05/25 05:09:47;;;;;;;9.65;3.65;;;;;;;13.21;71.57;99362.49;232884;1174;115799;-67
2021/05/25 05:14:51;;;;;;;4.00;3.35;;;;;;;13.15;71.58;99352.80;233366;1174;115657;-68
2021/05/25 05:19:55;;;;;;;6.60;3.70;;;;;;;13.14;71.63;99359.23;232740;1174;115412;-68
2021/05/25 05:24:57;;;;;;;6.00;3.88;;;;;;;13.19;71.76;99361.14;233154;1174;117748;-68
2021/05/25 05:30:00;;;;;;;3.90;2.93;;;;;;;13.15;71.81;99353.63;233868;1174;115077;-68
2021/05/25 05:35:06;;;;;;;7.20;4.78;;;;;;;13.18;72.04;99359.53;232651;1174;116934;-67
2021/05/25 05:40:10;;;;;;;4.45;4.00;;;;;;;13.18;72.29;99365.69;232609;1174;115638;-67
2021/05/25 05:45:33;;;;;;;5.33;3.08;;;;;;;13.19;72.25;99361.95;232715;1174;118044;-68
2021/05/25 05:50:37;;;;;;;5.03;3.88;;;;;;;13.25;72.42;99357.42;232543;1174;116029;-68
2021/05/25 05:55:40;;;;;;;4.53;3.53;;;;;;;13.33;72.69;99359.61;232508;1174;115462;-67
2021/05/25 06:00:45;;;;;;;5.60;4.00;;;;;;;13.52;72.47;99360.73;233158;1174;115842;-68
2021/05/25 06:05:49;;;;;;;9.63;4.00;;;;;;;13.64;72.08;99355.16;232603;1174;115387;-68
2021/05/25 06:10:53;;;;;;;6.40;4.75;;;;;;;13.70;72.31;99362.15;232467;1174;115464;-67
2021/05/25 06:16:07;;;;;;;5.60;4.00;;;;;;;13.70;72.10;99362.15;232507;1174;116205;-67
2021/05/25 06:21:11;;;;;;;9.05;4.50;;;;;;;13.72;72.33;99360.02;232702;1174;115789;-68
2021/05/25 06:26:16;;;;;;;6.18;5.08;;;;;;;13.76;72.36;99361.88;233114;1171;115359;-67
2021/05/25 06:31:21;;;;;;;4.98;4.53;;;;;;;13.83;72.37;99358.95;234315;1174;115015;-68
2021/05/25 06:36:25;;;;;;;4.80;4.40;;;;;;;13.87;71.74;99359.23;232872;1174;114818;-69
2021/05/25 06:41:29;;;;;;;5.50;4.40;;;;;;;13.89;72.42;99365.13;233826;1174;115372;-67
2021/05/25 06:46:33;;;;;;;3.75;3.33;;;;;;;13.85;71.80;99364.05;233841;1174;115077;-68
2021/05/25 06:51:37;;;;;;;4.68;4.30;;;;;;;13.87;71.59;99361.91;234924;1174;115035;-68
2021/05/25 06:56:40;;;;;;;5.18;4.70;;;;;;;14.05;72.02;99353.38;234974;1171;115402;-68
2021/05/25 07:01:44;;;;;;;5.60;4.10;;;;;;;14.43;71.67;99344.81;233291;1174;115482;-69
2021/05/25 07:06:47;;;;;;;6.23;3.45;;;;;;;15.80;70.86;99324.78;232461;1174;115707;-68
2021/05/25 07:11:51;;;;;;;4.15;3.00;;;;;;;17.82;69.25;99315.67;233530;1170;115347;-69
2021/05/25 07:16:56;;;;;;;2.80;2.43;;;;;;;18.97;67.91;99322.09;232650;1169;116175;-68
2021/05/25 07:22:01;;;;;;;3.03;2.83;;;;;;;19.66;66.25;99330.96;232576;1175;116526;-69
2021/05/25 07:27:05;;;;;;;2.85;2.63;;;;;;;19.50;64.31;99326.97;233326;1174;116532;-69
2021/05/25 07:32:09;;;;;;;1.88;1.78;;;;;;;18.92;63.21;99338.41;232544;1171;114986;-69
2021/05/25 07:37:13;;;;;;;2.45;2.05;;;;;;;19.16;63.19;99336.31;232598;1174;115944;-69
2021/05/25 07:42:17;;;;;;;2.90;2.67;;;;;;;18.77;62.60;99346.78;232832;1174;115667;-69
2021/05/25 07:47:21;;;;;;;1.90;1.80;;;;;;;19.44;63.35;99339.79;232660;1174;115687;-69
2021/05/25 07:52:25;;;;;;;2.83;2.65;;;;;;;19.87;62.08;99338.64;233199;1174;115151;-69
2021/05/25 07:57:29;;;;;;;2.70;2.33;;;;;;;19.83;60.48;99330.33;232513;1171;115552;-69
2021/05/25 08:02:33;;;;;;;2.50;2.25;;;;;;;19.24;60.45;99328.61;232496;1174;114790;-69
2021/05/25 08:07:37;;;;;;;2.35;2.05;;;;;;;18.93;60.29;99333.81;233144;1174;116141;-69
2021/05/25 08:12:42;;;;;;;2.48;2.30;;;;;;;18.76;60.02;99348.69;233699;1170;115496;-69
2021/05/25 08:22:56;;;;;;;2.27;2.17;;;;;;;18.71;60.68;99358.77;232792;1174;115433;-71
2021/05/25 08:28:01;;;;;;;2.38;2.18;;;;;;;18.70;60.33;99365.27;234022;1174;115653;-72
2021/05/25 08:33:04;;;;;;;;;;;;;;;19.23;59.94;99378.35;232839;1174;115008;-71
2021/05/25 08:38:21;;;;;;;2.10;2.00;;;;;;;19.26;59.28;99377.75;235364;1173;102960;-72
2021/05/25 08:43:26;;;;;;;5.98;2.15;;;;;;;19.33;59.37;99384.34;235076;1174;115272;-72
2021/05/25 08:48:30;;;;;;;2.50;2.30;;;;;;;19.30;58.85;99387.64;235082;1174;114801;-71
2021/05/25 08:53:34;;;;;;;2.70;2.13;;;;;;;19.28;58.74;99402.55;234133;1174;116631;-71
2021/05/25 08:58:38;;;;;;;2.35;2.20;;;;;;;19.65;58.25;99406.97;234964;1174;115746;-71
2021/05/25 09:04:00;;;;;;;2.98;1.80;;;;;;;19.68;58.28;99411.78;232433;1174;116170;-71
2021/05/25 09:09:17;;;;;;;3.33;3.00;;;;;;;19.93;57.45;99423.95;233701;1174;115016;-71
2021/05/25 09:14:24;;;;;;;4.53;2.38;;;;;;;19.83;57.09;99427.70;232707;1174;114980;-71
2021/05/25 09:19:50;;;;;;;2.33;2.13;;;;;;;19.55;56.45;99426.93;232534;1174;115408;-71
2021/05/25 09:24:54;;;;;;;2.13;1.93;;;;;;;20.17;57.01;99421.81;232425;1174;115155;-71
2021/05/25 09:30:14;;;;;;;2.75;2.55;;;;;;;20.79;56.97;99422.75;232453;1174;116279;-71
2021/05/25 09:35:21;;;;;;;4.15;2.50;;;;;;;20.87;55.41;99437.47;232503;1174;115535;-72
2021/05/25 09:40:31;;;;;;;5.30;3.08;;;;;;;20.89;55.30;99418.19;232583;1174;115195;-71
2021/05/25 09:45:35;;;;;;;2.43;2.23;;;;;;;21.15;54.74;99406.36;232907;1174;115234;-69
2021/05/25 09:50:40;;;;;;;3.25;2.85;;;;;;;21.33;54.50;99411.91;233255;1174;115305;-69
2021/05/25 09:56:02;;;;;;;3.43;3.23;;;;;;;21.85;54.74;99405.48;232889;1174;115952;-69
2021/05/25 10:01:09;;;;;;;5.03;3.15;;;;;;;21.71;52.79;99414.86;233050;1174;116122;-70
2021/05/25 10:06:12;;;;;;;3.70;3.50;;;;;;;20.78;52.48;99442.05;233208;1174;116184;-68
2021/05/25 10:11:19;;;;;;;4.03;3.13;;;;;;;19.70;53.26;99450.94;232646;1175;117086;-71
2021/05/25 10:16:26;;;;;;;3.10;2.90;;;;;;;18.86;54.02;99469.23;233314;1174;116197;-69
2021/05/25 10:21:30;;;;;;;7.83;2.98;;;;;;;18.16;55.02;99482.67;233811;1169;116447;-69
2021/05/25 10:26:37;;;;;;;3.27;3.10;;;;;;;17.65;55.79;99480.63;234166;1174;116865;-69
2021/05/25 10:31:44;;;;;;;3.45;3.25;;;;;;;17.33;56.65;99481.21;232505;1167;203547;-71
2021/05/25 10:37:02;;;;;;;3.33;3.13;;;;;;;17.09;57.12;99486.56;234766;1174;115938;-69
2021/05/25 10:42:28;;;;;;;4.07;3.77;;;;;;;16.97;57.55;99488.02;235022;1174;115875;-69
2021/05/25 10:48:07;;;;;;;3.28;2.98;;;;;;;16.88;57.92;99490.50;235150;1174;115281;-70
2021/05/25 10:53:23;;;;;;;3.00;2.83;;;;;;;16.83;58.29;99485.16;234245;1174;115879;-69
2021/05/25 10:58:35;;;;;;;3.30;2.88;;;;;;;16.80;58.71;99493.81;232848;1174;117586;-69
2021/05/25 11:03:45;;;;;;;4.33;3.17;;;;;;;16.77;58.55;99495.18;233691;1174;115869;-69
2021/05/25 11:08:47;;;;;;;2.07;1.97;;;;;;;16.69;58.23;99508.42;233344;1174;116249;-69
2021/05/25 11:13:52;;;;;;;2.58;2.10;;;;;;;16.52;58.26;99524.91;232343;1174;115431;-71
2021/05/25 11:19:06;;;;;;;1.68;1.53;;;;;;;16.41;58.55;99531.45;232433;1174;115196;-71
2021/05/25 11:24:33;;;;;;;2.50;2.30;;;;;;;16.27;58.71;99541.19;232910;1174;115769;-71
2021/05/25 11:30:06;;;;;;;6.88;2.40;;;;;;;16.25;58.92;99549.53;232475;1174;116494;-71
2021/05/25 11:35:13;;;;;;;2.47;2.27;;;;;;;16.44;58.90;99550.53;233745;1174;115582;-69
2021/05/25 11:40:27;;;;;;;2.00;1.90;;;;;;;16.45;58.79;99567.48;232513;1176;115807;-70
2021/05/25 11:45:31;;;;;;;4.05;2.48;;;;;;;16.28;58.38;99565.13;233071;1174;115526;-71
2021/05/25 11:50:48;;;;;;;1.53;1.43;;;;;;;16.11;58.22;99572.74;232641;1174;115453;-71
2021/05/25 11:55:52;;;;;;;1.15;1.08;;;;;;;16.09;57.81;99575.70;232699;1174;114987;-71
2021/05/25 12:00:54;;;;;;;1.50;1.40;;;;;;;16.02;57.63;99587.82;232732;1174;115393;-71
2021/05/25 12:06:01;;;;;;;1.38;1.28;;;;;;;16.14;57.87;99582.95;233272;1174;115517;-71
2021/05/25 12:11:04;;;;;;;0.73;0.73;;;;;;;16.18;56.93;99597.46;232558;1174;115582;-70
2021/05/25 12:16:14;;;;;;;1.20;1.10;;;;;;;15.99;56.83;99596.44;232590;1174;115459;-71
2021/05/25 12:21:19;;;;;;;1.23;0.60;;;;;;;15.74;56.67;99595.42;233335;1171;115480;-71
2021/05/25 12:26:24;;;;;;;1.08;0.95;;;;;;;15.61;57.40;99579.04;232531;1173;115427;-70
2021/05/25 12:31:31;;;;;;;0.30;0.30;;;;;;;15.88;57.29;99578.74;232697;1171;115761;-71
2021/05/25 12:36:50;;;;;;;1.20;1.08;;;;;;;16.00;56.67;99581.91;233836;1174;115339;-71
2021/05/25 12:41:54;;;;;;;1.30;0.98;;;;;;;16.02;56.40;99593.20;234646;1174;115713;-69
2021/05/25 12:47:02;;;;;;;3.10;0.67;;;;;;;15.84;56.21;99610.73;233746;1174;116072;-70
2021/05/25 12:52:27;;;;;;;2.20;1.45;;;;;;;15.73;55.78;99619.88;234952;1174;115320;-69
2021/05/25 12:57:46;;;;;;;1.00;0.90;;;;;;;15.57;56.17;99608.36;234976;1174;115109;-69
2021/05/25 13:02:52;;;;;;;9.75;0.93;;;;;;;15.55;56.73;99602.42;234999;1174;117491;-69
2021/05/25 13:13:20;;;;;;;0.75;0.75;;;;;;;15.42;56.45;99609.13;232506;1174;115596;-70
2021/05/25 13:18:43;;;;;;;0.58;0.58;;;;;;;15.33;56.32;99586.56;233265;1174;114992;-71
2021/05/25 13:23:55;;;;;;;0.80;0.80;;;;;;;15.25;56.92;99594.38;232587;1174;116873;-73
2021/05/25 13:29:02;;;;;;;1.40;1.30;;;;;;;15.25;57.25;99602.43;233203;1174;115575;-70
2021/05/25 13:34:11;;;;;;;0.77;0.73;;;;;;;15.22;56.75;99603.77;233323;1174;115438;-67
2021/05/25 13:39:18;;;;;;;1.88;1.00;;;;;;;15.19;56.86;99600.81;233543;1174;116737;-67
2021/05/25 13:44:21;;;;;;;1.98;0.60;;;;;;;15.21;57.44;99612.90;232720;1174;115213;-69
2021/05/25 13:49:24;;;;;;;1.35;0.90;;;;;;;15.14;57.75;99645.38;232338;1174;115585;-70
2021/05/25 13:54:27;;;;;;;0.97;0.80;;;;;;;15.05;57.74;99646.97;232987;1174;116139;-70
2021/05/25 13:59:50;;;;;;;6.90;1.50;;;;;;;14.95;57.79;99641.59;233499;1169;115895;-70
2021/05/25 14:04:54;;;;;;;1.28;1.18;;;;;;;14.83;57.51;99646.39;233308;1174;137066;-67
2021/05/25 14:09:57;;;;;;;3.43;1.17;;;;;;;14.78;57.83;99657.91;232822;1174;115682;-68
2021/05/25 14:15:03;;;;;;;0.70;0.70;;;;;;;14.71;57.11;99651.98;233149;1174;114998;-68
2021/05/25 14:20:07;;;;;;;1.50;1.30;;;;;;;14.64;57.43;99642.59;232402;1174;115859;-69
2021/05/25 14:25:12;;;;;;;2.30;1.55;;;;;;;14.66;57.09;99665.40;232395;1174;115206;-67
2021/05/25 14:30:17;;;;;;;5.13;2.05;;;;;;;14.71;57.01;99672.64;232445;1174;115935;-69
2021/05/25 14:35:22;;;;;;;1.50;1.40;;;;;;;14.81;57.13;99660.06;232777;1174;116039;-69
2021/05/25 14:40:26;;;;;;;1.05;1.05;;;;;;;14.98;57.56;99657.14;233689;1174;115606;-68
2021/05/25 14:45:30;;;;;;;3.85;1.95;;;;;;;15.09;57.20;99664.16;234760;1174;115919;-66
2021/05/25 14:50:34;;;;;;;1.30;1.28;;;;;;;15.10;56.25;99671.14;234865;1174;114849;-66
2021/05/25 14:55:39;;;;;;;1.30;1.20;;;;;;;15.09;56.44;99666.84;234948;1174;115741;-66
2021/05/25 15:01:17;;;;;;;2.43;1.50;;;;;;;15.10;57.05;99664.97;234947;1174;117190;-66
2021/05/25 15:06:18;;;;;;;1.00;1.00;;;;;;;15.13;56.24;99669.80;235119;1175;115458;-66
2021/05/25 15:11:22;;;;;;;2.50;2.30;;;;;;;15.18;56.65;99669.02;233726;1174;117306;-66
2021/05/25 15:16:24;;;;;;;1.67;1.57;;;;;;;15.14;56.52;99663.36;232689;1176;116724;-68
2021/05/25 15:21:32;;;;;;;2.50;1.43;;;;;;;15.07;56.85;99671.67;233868;1174;116477;-68
2021/05/25 15:26:36;;;;;;;1.28;1.18;;;;;;;14.91;57.03;99677.28;232869;1175;117303;-68
2021/05/25 15:31:39;;;;;;;1.25;1.03;;;;;;;14.76;56.69;99672.66;233013;1170;116488;-69
2021/05/25 15:36:43;;;;;;;1.43;1.33;;;;;;;14.65;56.86;99669.16;232496;1174;116812;-68
2021/05/25 15:41:47;;;;;;;1.50;1.40;;;;;;;14.61;57.06;99668.06;233480;1176;116738;-69
2021/05/25 15:46:51;;;;;;;2.50;1.43;;;;;;;14.54;57.47;99666.69;233317;1174;116214;-68
2021/05/25 15:51:54;;;;;;;1.73;1.45;;;;;;;14.51;58.33;99659.16;232630;1174;115508;-69
2021/05/25 15:56:57;;;;;;;4.38;1.30;;;;;;;14.51;58.00;99667.20;233615;1170;115249;-69
2021/05/25 16:02:00;;;;;;;2.00;1.03;;;;;;;14.47;58.58;99646.27;232784;1174;115809;-68
2021/05/25 16:07:04;;;;;;;1.57;1.40;;;;;;;14.45;58.42;99643.03;232587;1174;116528;-68
2021/05/25 16:12:07;;;;;;;2.75;2.50;;;;;;;14.41;59.20;99647.30;232489;1174;115828;-68
2021/05/25 16:17:10;;;;;;;3.60;2.30;;;;;;;14.42;59.38;99640.07;232567;1174;115421;-69
2021/05/25 16:22:15;;;;;;;1.95;1.85;;;;;;;14.41;58.96;99657.23;232958;1174;115318;-69
2021/05/25 16:27:20;;;;;;;2.63;1.80;;;;;;;14.38;59.61;99629.02;232332;1173;115455;-68
2021/05/25 16:32:23;;;;;;;3.35;3.00;;;;;;;14.44;59.86;99637.94;232370;1174;115103;-68
2021/05/25 16:37:26;;;;;;;1.50;1.40;;;;;;;14.46;59.73;99625.88;232462;1174;116054;-68
2021/05/25 16:42:28;;;;;;;4.15;2.55;;;;;;;14.52;60.30;99625.91;232245;1169;115886;-68
2021/05/25 16:47:31;;;;;;;3.65;2.10;;;;;;;14.59;60.23;99631.83;234665;1174;115089;-66
2021/05/25 16:52:40;;;;;;;2.25;2.05;;;;;;;14.58;59.61;99622.98;234913;1174;115323;-67
2021/05/25 16:57:46;;;;;;;3.80;3.13;;;;;;;14.58;60.05;99633.70;234966;1174;115091;-67
2021/05/25 17:18:51;;;;;;;2.83;2.45;;;;;;;14.49;60.04;99652.17;234129;1174;117492;-67
2021/05/25 17:23:57;;;;;;;4.03;2.65;;;;;;;14.41;60.35;99636.58;233867;1174;115869;-70
2021/05/25 17:29:01;;;;;;;6.83;3.77;;;;;;;14.32;60.47;99638.14;232503;1174;116926;-69
2021/05/25 17:34:05;;;;;;;3.80;2.70;;;;;;;14.24;60.91;99643.19;232561;1173;115692;-69
2021/05/25 17:39:11;;;;;;;3.00;2.75;;;;;;;14.10;60.75;99657.05;232734;1174;115904;-69
2021/05/25 17:44:16;;;;;;;3.63;2.48;;;;;;;13.94;61.03;99651.87;232576;1174;115608;-69
2021/05/25 17:49:20;;;;;;;4.58;3.23;;;;;;;13.77;61.26;99647.45;232604;1174;115904;-70
2021/05/25 17:54:23;;;;;;;2.55;2.35;;;;;;;13.71;61.36;99639.66;232665;1174;116782;-68
2021/05/25 17:59:26;;;;;;;3.30;3.03;;;;;;;13.70;61.62;99633.50;233133;1175;117145;-67
2021/05/25 18:04:30;;;;;;;2.70;2.47;;;;;;;13.66;61.81;99634.27;232442;1174;115987;-68
2021/05/25 18:09:33;;;;;;;4.55;2.73;;;;;;;13.57;62.43;99646.51;232878;1174;115143;-68
2021/05/25 18:14:37;;;;;;;1.98;1.78;;;;;;;13.51;62.51;99651.02;232822;1174;116040;-67
2021/05/25 18:19:40;;;;;;;5.60;2.50;;;;;;;13.41;62.46;99648.27;233496;1174;116893;-68
2021/05/25 18:24:44;;;;;;;3.15;2.25;;;;;;;13.28;62.48;99664.74;232410;1174;116251;-67
2021/05/25 18:29:47;;;;;;;2.75;2.53;;;;;;;13.26;62.92;99666.86;233142;1173;205226;-68
2021/05/25 18:35:02;;;;;;;3.48;3.20;;;;;;;13.27;62.92;99687.22;233214;1176;117364;-69
2021/05/25 18:40:18;;;;;;;2.87;2.50;;;;;;;13.22;63.13;99682.62;232468;1174;115502;-69
2021/05/25 18:45:26;;;;;;;3.20;3.00;;;;;;;13.17;62.97;99695.14;233771;1170;115214;-69
2021/05/25 18:50:30;;;;;;;4.38;2.80;;;;;;;13.05;63.10;99698.77;232349;1174;115452;-69
2021/05/25 18:55:34;;;;;;;3.98;2.70;;;;;;;12.97;63.50;99704.55;233181;1174;115872;-69
2021/05/25 19:00:37;;;;;;;4.37;2.87;;;;;;;12.83;63.11;99700.66;235044;1174;115691;-67
2021/05/25 19:05:40;;;;;;;3.27;2.20;;;;;;;12.78;63.25;99681.88;234378;1174;115185;-70
2021/05/25 19:10:44;;;;;;;8.03;3.33;;;;;;;12.72;63.48;99682.87;234842;1174;115442;-68
2021/05/25 19:15:51;;;;;;;5.13;3.48;;;;;;;12.64;63.32;99686.78;234467;1167;115201;-67
2021/05/25 19:21:14;;;;;;;6.83;3.25;;;;;;;12.52;63.38;99687.98;234840;1174;115727;-69
2021/05/25 19:26:29;;;;;;;12.10;4.00;;;;;;;12.36;63.45;99692.30;233669;1174;118117;-70
2021/05/25 19:31:41;;;;;;;7.60;3.90;;;;;;;12.11;63.61;99684.75;233257;1174;116851;-68
2021/05/25 19:36:46;;;;;;;5.45;4.05;;;;;;;11.94;63.90;99684.77;232420;1174;116247;-69
2021/05/25 19:41:50;;;;;;;5.18;3.75;;;;;;;11.86;64.24;99695.07;232590;1174;116521;-69
2021/05/25 19:46:59;;;;;;;9.83;4.68;;;;;;;11.73;64.48;99696.16;233081;1174;116184;-69
2021/05/25 19:52:05;;;;;;;4.45;2.78;;;;;;;11.62;64.47;99708.53;232969;1174;115786;-68
2021/05/25 19:57:09;;;;;;;2.97;2.67;;;;;;;11.42;64.77;99705.53;232615;1176;116368;-68
2021/05/25 20:02:13;;;;;;;4.40;3.30;;;;;;;11.27;64.74;99714.09;233232;1174;118625;-70
2021/05/25 20:07:17;;;;;;;7.27;3.67;;;;;;;11.20;64.92;99710.75;232723;1174;115832;-66
2021/05/25 20:12:22;;;;;;;4.93;3.63;;;;;;;11.03;65.61;99717.89;232629;1174;117157;-69
2021/05/25 20:17:26;;;;;;;6.38;2.33;;;;;;;10.95;65.77;99721.77;232929;1176;115853;-68
2021/05/25 20:22:29;;;;;;;3.25;2.95;;;;;;;10.85;65.37;99731.41;232543;1172;117024;-71
2021/05/25 20:27:33;;;;;;;4.35;2.95;;;;;;;10.73;65.79;99742.09;232242;1174;116485;-68
2021/05/25 20:32:37;;;;;;;8.67;4.03;;;;;;;10.65;65.76;99740.63;232922;1174;117322;-69
2021/05/25 20:37:41;;;;;;;3.37;2.73;;;;;;;10.66;66.05;99744.92;232436;1174;117217;-68
2021/05/25 20:42:45;;;;;;;5.28;3.28;;;;;;;10.64;66.88;99754.19;233156;1174;115869;-70
2021/05/25 20:47:50;;;;;;;6.47;3.03;;;;;;;10.65;67.14;99756.63;232457;1174;117461;-69
2021/05/25 20:52:54;;;;;;;5.18;2.65;;;;;;;10.65;66.60;99777.14;232490;1174;116241;-68
2021/05/25 20:57:59;;;;;;;5.60;3.20;;;;;;;10.69;67.03;99775.63;232483;1177;116894;-67
2021/05/25 21:03:03;;;;;;;2.48;2.18;;;;;;;10.75;66.89;99774.67;234868;1174;116435;-70
2021/05/25 21:08:07;;;;;;;2.30;1.90;;;;;;;10.79;66.82;99771.30;234919;1174;115725;-69
2021/05/25 21:13:11;;;;;;;4.30;3.10;;;;;;;10.83;66.39;99763.64;235003;1174;116058;-69
2021/05/25 21:18:16;;;;;;;2.88;2.43;;;;;;;10.85;66.56;99758.89;234324;1174;114820;-69
2021/05/25 21:23:21;;;;;;;2.60;2.23;;;;;;;10.92;66.07;99764.91;232978;1174;115697;-67
2021/05/25 21:28:25;;;;;;;3.33;2.50;;;;;;;10.96;65.97;99768.73;232977;1174;115087;-67
2021/05/25 21:33:29;;;;;;;3.85;2.75;;;;;;;10.99;66.12;99778.12;233495;1174;115511;-68
2021/05/25 21:38:33;;;;;;;2.40;1.80;;;;;;;10.96;65.88;99771.39;233883;1174;116400;-67
2021/05/25 21:43:39;;;;;;;;;;;;;;;10.92;65.99;99764.91;232659;1174;116094;-67
2021/05/25 21:48:43;;;;;;;3.60;2.70;;;;;;;10.83;65.59;99776.98;233977;1172;103084;-70
2021/05/25 21:53:47;;;;;;;4.25;2.50;;;;;;;10.83;65.83;99782.31;234233;1174;116037;-69
2021/05/25 21:58:54;;;;;;;3.37;2.07;;;;;;;10.83;65.71;99782.31;232539;1174;115878;-69
2021/05/25 22:03:57;;;;;;;2.03;1.43;;;;;;;10.78;65.17;99783.02;233062;1174;117412;-67
2021/05/25 22:09:00;;;;;;;2.03;1.73;;;;;;;10.72;65.54;99783.95;233115;1174;116087;-68
2021/05/25 22:14:05;;;;;;;4.40;1.90;;;;;;;10.66;64.78;99784.09;233172;1174;116236;-69
2021/05/25 22:19:08;;;;;;;3.30;2.25;;;;;;;10.53;65.31;99784.33;232791;1170;115699;-68
2021/05/25 22:24:12;;;;;;;3.80;2.20;;;;;;;10.46;65.02;99779.92;233445;1174;115861;-68
2021/05/25 22:29:16;;;;;;;3.20;2.38;;;;;;;10.39;65.64;99773.92;232714;1174;116366;-66
2021/05/25 22:34:20;;;;;;;4.95;2.75;;;;;;;10.29;65.46;99767.55;232850;1174;116478;-66
2021/05/25 22:39:23;;;;;;;4.03;1.67;;;;;;;10.11;65.67;99779.88;232843;1174;115945;-66
2021/05/25 22:44:27;;;;;;;5.07;3.37;;;;;;;9.93;65.42;99777.33;233907;1174;115777;-69
2021/05/25 22:49:30;;;;;;;4.57;3.20;;;;;;;9.82;65.62;99772.78;232735;1175;115826;-69
2021/05/25 22:54:33;;;;;;;6.65;2.88;;;;;;;9.74;65.91;99775.80;232592;1174;115831;-68
2021/05/25 22:59:36;;;;;;;4.85;2.73;;;;;;;9.63;66.49;99773.91;232539;1174;116264;-68
2021/05/25 23:04:40;;;;;;;5.58;4.65;;;;;;;9.55;67.03;99769.70;233710;1174;117425;-68
2021/05/25 23:09:43;;;;;;;4.30;2.57;;;;;;;9.50;67.27;99774.89;233043;1174;116038;-68
2021/05/25 23:14:46;;;;;;;4.23;2.93;;;;;;;9.45;67.16;99788.09;235002;1174;115309;-68
2021/05/25 23:19:52;;;;;;;5.20;3.00;;;;;;;9.42;67.09;99777.90;234434;1174;115687;-68
2021/05/25 23:24:56;;;;;;;3.37;2.63;;;;;;;9.40;67.18;99782.63;234149;1174;115126;-68
2021/05/25 23:29:59;;;;;;;6.83;3.95;;;;;;;9.32;67.19;99789.06;233554;1174;115628;-67
2021/05/25 23:35:04;;;;;;;4.73;2.58;;;;;;;9.17;66.73;99787.86;233616;1174;115378;-67
2021/05/25 23:40:08;;;;;;;3.65;2.38;;;;;;;9.05;66.81;99785.94;233629;1174;115904;-66
2021/05/25 23:45:13;;;;;;;4.43;2.30;;;;;;;9.03;67.29;99788.01;232814;1174;115811;-67
2021/05/25 23:50:17;;;;;;;4.40;2.63;;;;;;;8.97;67.90;99791.55;232695;1170;116601;-67